Petersville, IA

10:20 PM CST on January 16, 2017 (GMT -0600)
| | Change Station
Active Advisory: Dense Fog Advisory

Elev -9999 ft 0.00 °N, 0.00 °E | Updated 0 second ago

Rain
Rain
°F
Feels Like °F
N
Wind Variable Wind from North
Gusts mph

Today
High -- | Low -- °F
--% Chance of Precip.
Yesterday
High -- | Low -- °F
Precip. -- in
Pressure 29.85 in
Visibility 0.5 miles
Clouds Overcast 300 ft
Dew Point Not available.
Humidity Not available.
Rainfall --
Snow Depth Not available.
7:26 AM 4:57 PM
Waning Gibbous, 76% visible
SPECI KCWI 170414Z AUTO 05004KT 1/2SM -RA FG OVC003 02/02 A2985 RMK AO2 P0000 FZRANO
Pressure 29.85 in
Visibility 0.5 miles
Clouds Overcast 300 ft
Dew Point Not available.
Humidity Not available.
Rainfall --
Snow Depth Not available.
7:26 AM 4:57 PM
Waning Gibbous, 76% visible
SPECI KCWI 170414Z AUTO 05004KT 1/2SM -RA FG OVC003 02/02 A2985 RMK AO2 P0000 FZRANO

Get Your Daily Forecast Email!

Thanks for signing up!

Be on the lookout for a verification email in your inbox.

You'll start receiving the daily forecast at 8 AM.

×

10-Day Weather Forecast

Almanac

Astronomy

Jan. 16, 2017 Rise Set
Actual Time
Civil Twilight
Nautical Twilight
Astronomical Twilight
Moon
Length of Visible Light
Length of Day
Tomorrow will be .
, % of the Moon is Illuminated

Today's Extremes

State Highs State Lows

Community

WunderPhotos

Upload Photos

1,962,540 photos uploaded!

WunderBlog® & News

Nearby

Air Quality

  Air Quality AQ Index Pollutant
Not available.

Snow Depth

Station Depth Elevation

Earthquake Activity

City Distance Mag. Time & Date
Minimum magnitude displayed is 2.5.

Coastal Water Temperatures

Place Temperature

Stations

Nearby Weather Stations

Station Location Temp. Windchill Dew Point Humidity Wind Precip. Elev Updated Type
                   

Watches & Warnings

Dense Fog Advisory
Issued: 9:27 PM CST Jan. 16, 2017 – National Weather Service

... Dense fog advisory in effect until 10 am CST Tuesday...

The National Weather Service in Quad Cities has issued a dense
fog advisory... which is in effect until 10 am CST Tuesday.

* Visibilities... frequently below 1/4 mile... near zero at times.
Periods of improving conditions during showers.

* Timing... overnight. Visibilities improving from west to east
between 7 and 10 am.

* Impacts... driving will be hazardous when visibility falls
rapidly. Please allow extra time for travel and drive with
caution.

Precautionary/preparedness actions...

A dense fog advisory means visibilities will frequently be
reduced to less than one quarter mile. If driving... slow down...
use your headlights... and leave plenty of distance ahead of you.